Time;durP1;ratioP1;P1;durP2;ratioP2;P2;SDS_P1;SDS_P2;PMS_P1;PMS_P2;Temp;Humidity;BMP_temperature;BMP_pressure;BME280_temperature;BME280_humidity;BME280_pressure;Samples;Min_cycle;Max_cycle;Signal;HPM_P1;HPM_P2
2022/03/16 00:01:18;;;;;;;3.40;2.50;;;20.40;33.20;;;;;;5113276;28;20051;-81
2022/03/16 00:03:44;;;;;;;3.38;2.42;;;20.40;33.30;;;;;;5113248;28;20051;-81
2022/03/16 00:06:10;;;;;;;3.40;2.78;;;20.40;33.30;;;;;;5094011;28;20067;-81
2022/03/16 00:08:35;;;;;;;4.18;2.90;;;20.40;33.30;;;;;;5094750;28;20063;-81
2022/03/16 00:11:01;;;;;;;3.25;2.40;;;20.40;33.30;;;;;;5094753;28;20056;-81
2022/03/16 00:13:27;;;;;;;3.22;2.47;;;20.40;33.30;;;;;;5113092;28;20541;-81
2022/03/16 00:15:52;;;;;;;2.58;2.05;;;20.40;33.30;;;;;;5113412;28;20047;-81
2022/03/16 00:18:21;;;;;;;4.25;2.58;;;20.40;33.30;;;;;;5113287;28;20047;-81
2022/03/16 00:20:48;;;;;;;2.78;2.25;;;20.40;33.30;;;;;;5094990;28;20457;-81
2022/03/16 00:23:17;;;;;;;2.85;2.55;;;20.40;33.30;;;;;;5113032;28;20411;-81
2022/03/16 00:25:42;;;;;;;2.78;2.20;;;20.30;33.20;;;;;;5112864;28;20058;-81
2022/03/16 00:28:08;;;;;;;3.50;2.50;;;20.40;33.30;;;;;;5112472;28;20055;-80
2022/03/16 00:30:35;;;;;;;2.92;2.30;;;20.40;33.30;;;;;;5094575;28;20055;-81
2022/03/16 00:33:00;;;;;;;3.50;2.28;;;20.40;33.30;;;;;;5094401;28;20043;-81
2022/03/16 00:35:26;;;;;;;2.35;2.00;;;20.40;33.30;;;;;;5113062;28;20043;-81
2022/03/16 00:37:51;;;;;;;2.78;2.28;;;20.40;33.30;;;;;;5092046;28;20047;-81
2022/03/16 00:40:17;;;;;;;3.80;2.63;;;20.40;33.30;;;;;;5093743;28;20055;-81
2022/03/16 00:42:43;;;;;;;3.30;2.10;;;20.40;33.30;;;;;;5095010;28;20097;-81
2022/03/16 00:45:09;;;;;;;3.78;2.53;;;20.40;33.30;;;;;;5112511;28;20048;-81
2022/03/16 00:47:35;;;;;;;3.35;2.50;;;20.40;33.30;;;;;;5077521;28;20475;-81
2022/03/16 00:50:01;;;;;;;2.75;2.08;;;20.40;33.30;;;;;;5093481;28;20097;-81
2022/03/16 00:52:26;;;;;;;4.63;2.60;;;20.40;33.30;;;;;;5112525;28;20486;-80
2022/03/16 00:54:52;;;;;;;3.47;2.20;;;20.40;33.30;;;;;;5093781;28;20399;-81
2022/03/16 00:57:17;;;;;;;3.15;2.35;;;20.40;33.30;;;;;;5112532;28;20430;-81
2022/03/16 00:59:43;;;;;;;3.38;2.63;;;20.40;33.30;;;;;;5095869;28;20047;-81
2022/03/16 01:02:08;;;;;;;2.83;2.30;;;20.30;33.20;;;;;;5098222;28;20059;-81
2022/03/16 01:04:34;;;;;;;2.63;2.20;;;20.40;33.30;;;;;;5097437;28;20054;-81
2022/03/16 01:07:01;;;;;;;2.65;2.05;;;20.40;33.30;;;;;;5080784;28;20104;-80
2022/03/16 01:09:27;;;;;;;2.67;2.40;;;20.40;33.30;;;;;;5097690;28;20081;-80
2022/03/16 01:11:52;;;;;;;2.90;2.40;;;20.40;33.30;;;;;;5115959;28;20052;-81
2022/03/16 01:14:18;;;;;;;2.90;2.20;;;20.40;33.30;;;;;;5097483;28;20058;-81
2022/03/16 01:16:44;;;;;;;4.00;2.33;;;20.40;33.30;;;;;;5097836;28;20058;-81
2022/03/16 01:19:14;;;;;;;2.88;2.30;;;20.30;33.20;;;;;;5116369;28;20047;-81
2022/03/16 01:21:41;;;;;;;2.53;2.20;;;20.40;33.30;;;;;;5097497;28;20055;-81
2022/03/16 01:24:08;;;;;;;2.85;2.35;;;20.40;33.30;;;;;;5097423;28;20411;-82
2022/03/16 01:26:35;;;;;;;4.10;2.50;;;20.40;33.30;;;;;;5095816;28;20058;-82
2022/03/16 01:29:03;;;;;;;4.28;3.17;;;20.40;33.30;;;;;;5115551;28;20052;-82
2022/03/16 01:31:28;;;;;;;2.72;1.80;;;20.40;33.30;;;;;;5115594;28;20135;-79
2022/03/16 01:33:54;;;;;;;2.85;2.30;;;20.40;33.30;;;;;;5097152;28;20089;-79
2022/03/16 01:36:20;;;;;;;2.65;2.10;;;20.40;33.30;;;;;;5097257;28;20074;-79
2022/03/16 01:38:46;;;;;;;2.58;2.22;;;20.40;33.30;;;;;;5115419;28;20062;-79
2022/03/16 01:41:13;;;;;;;3.35;2.28;;;20.40;33.30;;;;;;5115413;28;20074;-81
2022/03/16 01:43:39;;;;;;;3.03;2.42;;;20.30;33.30;;;;;;5080146;28;20051;-81
2022/03/16 01:46:04;;;;;;;2.72;2.47;;;20.40;33.30;;;;;;5080695;28;20047;-82
2022/03/16 01:48:30;;;;;;;2.75;2.17;;;20.40;33.30;;;;;;5079684;28;20056;-82
2022/03/16 01:50:56;;;;;;;2.25;1.63;;;20.40;33.30;;;;;;5115189;28;20058;-79
2022/03/16 01:53:21;;;;;;;3.50;2.63;;;20.40;33.30;;;;;;5115299;28;20052;-81
2022/03/16 01:55:47;;;;;;;2.95;2.30;;;20.30;33.30;;;;;;5096739;28;20189;-81
2022/03/16 01:58:13;;;;;;;2.75;1.98;;;20.30;33.30;;;;;;5095966;28;20086;-81
2022/03/16 02:00:40;;;;;;;3.03;2.10;;;20.30;33.30;;;;;;5096845;28;20054;-82
2022/03/16 02:03:09;;;;;;;2.78;2.15;;;20.30;33.30;;;;;;5079890;28;20048;-82
2022/03/16 02:05:35;;;;;;;2.25;2.05;;;20.40;33.30;;;;;;5097016;28;20051;-81
2022/03/16 02:08:03;;;;;;;2.90;2.08;;;20.30;33.30;;;;;;5114922;28;20048;-81
2022/03/16 02:10:29;;;;;;;3.78;2.50;;;20.30;33.30;;;;;;5096527;28;20051;-81
2022/03/16 02:12:56;;;;;;;3.33;1.90;;;20.40;33.30;;;;;;5115283;28;20139;-81
2022/03/16 02:15:23;;;;;;;3.08;2.40;;;20.40;33.30;;;;;;5115001;28;20067;-82
2022/03/16 02:17:50;;;;;;;2.75;2.05;;;20.40;33.30;;;;;;5114696;28;20149;-81
2022/03/16 02:20:17;;;;;;;2.60;2.20;;;20.30;33.30;;;;;;5096631;28;20090;-82
2022/03/16 02:22:56;;;;;;;2.92;1.95;;;20.30;33.30;;;;;;5096385;28;20482;-82
2022/03/16 02:25:27;;;;;;;2.83;2.22;;;20.40;33.30;;;;;;5114727;28;20479;-81
2022/03/16 02:27:53;;;;;;;2.10;1.83;;;20.40;33.30;;;;;;5114808;28;20052;-82
2022/03/16 02:30:23;;;;;;;2.75;2.10;;;20.40;33.30;;;;;;5096442;28;20839;-81
2022/03/16 02:32:49;;;;;;;3.10;2.28;;;20.30;33.30;;;;;;5114568;28;20051;-82
2022/03/16 02:35:15;;;;;;;4.07;2.38;;;20.40;33.30;;;;;;5114820;28;20471;-82
2022/03/16 02:37:42;;;;;;;3.28;2.45;;;20.40;33.30;;;;;;5096278;28;20051;-82
2022/03/16 02:40:11;;;;;;;2.55;1.92;;;20.30;33.30;;;;;;5114532;28;20047;-81
2022/03/16 02:42:36;;;;;;;3.00;2.35;;;20.40;33.30;;;;;;5114699;28;20078;-81
2022/03/16 02:45:04;;;;;;;2.55;2.13;;;20.40;33.30;;;;;;5114250;28;20052;-81
2022/03/16 02:47:29;;;;;;;2.95;2.00;;;20.40;33.30;;;;;;5114261;28;20055;-82
2022/03/16 02:49:55;;;;;;;2.78;2.10;;;20.40;33.30;;;;;;5114246;28;20098;-82
2022/03/16 02:52:22;;;;;;;2.30;1.80;;;20.40;33.30;;;;;;5114186;28;20058;-82
2022/03/16 02:54:48;;;;;;;4.03;2.47;;;20.40;33.20;;;;;;5114235;28;20059;-79
2022/03/16 02:57:16;;;;;;;2.42;2.08;;;20.40;33.20;;;;;;5094088;28;20478;-82
2022/03/16 02:59:42;;;;;;;2.28;2.03;;;20.40;33.30;;;;;;5095812;28;20457;-81
2022/03/16 03:02:09;;;;;;;2.25;1.77;;;20.40;33.30;;;;;;5114093;28;20074;-82
2022/03/16 03:04:35;;;;;;;2.35;1.77;;;20.40;33.30;;;;;;5114035;28;20047;-82
2022/03/16 03:07:00;;;;;;;3.13;2.20;;;20.40;33.20;;;;;;5114237;28;20383;-82
2022/03/16 03:09:26;;;;;;;3.15;2.10;;;20.40;33.20;;;;;;5114633;28;20043;-82
2022/03/16 03:11:52;;;;;;;2.55;2.17;;;20.40;33.20;;;;;;5114302;28;20133;-82
2022/03/16 03:14:18;;;;;;;2.30;2.10;;;20.40;33.20;;;;;;5095772;28;20488;-82
2022/03/16 03:16:43;;;;;;;2.70;1.80;;;20.40;33.20;;;;;;5113691;28;20048;-81
2022/03/16 03:19:09;;;;;;;3.03;2.08;;;20.40;33.20;;;;;;5094673;28;20100;-82
2022/03/16 03:21:35;;;;;;;3.13;2.20;;;20.40;33.20;;;;;;5113147;28;20051;-82
2022/03/16 03:24:00;;;;;;;2.78;2.08;;;20.40;33.20;;;;;;5113870;28;20130;-82
2022/03/16 03:26:26;;;;;;;2.17;1.92;;;20.40;33.20;;;;;;5113732;28;20044;-82
2022/03/16 03:28:51;;;;;;;2.30;1.90;;;20.40;33.20;;;;;;5094342;28;20059;-82
2022/03/16 03:31:17;;;;;;;2.97;1.95;;;20.40;33.10;;;;;;5113755;28;20126;-79
2022/03/16 03:33:43;;;;;;;2.53;2.05;;;20.50;33.20;;;;;;5113757;28;20170;-82
2022/03/16 03:36:08;;;;;;;2.72;2.20;;;20.50;33.20;;;;;;5113560;28;20069;-82
2022/03/16 03:38:34;;;;;;;3.20;2.28;;;20.50;33.10;;;;;;5113516;28;20043;-82
2022/03/16 03:40:59;;;;;;;2.65;1.90;;;20.50;33.10;;;;;;5114114;28;20072;-82
2022/03/16 03:43:25;;;;;;;1.75;1.63;;;20.50;33.10;;;;;;5113810;28;20044;-82
2022/03/16 03:45:51;;;;;;;2.80;1.77;;;20.50;33.00;;;;;;5095164;28;20059;-82
2022/03/16 03:48:16;;;;;;;2.55;1.90;;;20.60;33.10;;;;;;5114050;28;20043;-82
2022/03/16 03:50:42;;;;;;;2.00;1.70;;;20.60;33.00;;;;;;5094177;28;20392;-82
2022/03/16 03:53:07;;;;;;;2.60;2.00;;;20.60;33.00;;;;;;5095549;28;20056;-82
2022/03/16 03:55:33;;;;;;;2.25;1.83;;;20.60;33.00;;;;;;5094823;28;20395;-82
2022/03/16 03:57:58;;;;;;;3.08;1.73;;;20.60;33.00;;;;;;5113199;28;20410;-82
2022/03/16 04:00:24;;;;;;;1.95;1.77;;;20.60;32.90;;;;;;5113359;28;20055;-82
2022/03/16 04:02:51;;;;;;;3.33;2.15;;;20.70;32.90;;;;;;5094812;28;20052;-82
2022/03/16 04:05:17;;;;;;;2.10;1.90;;;20.70;32.90;;;;;;5113107;28;20135;-82
2022/03/16 04:07:43;;;;;;;2.78;1.60;;;20.70;32.90;;;;;;5094886;28;20059;-82
2022/03/16 04:10:12;;;;;;;2.08;1.88;;;20.70;32.90;;;;;;5113217;28;20047;-82
2022/03/16 04:12:38;;;;;;;2.00;1.73;;;20.70;32.90;;;;;;5113071;28;20079;-82
2022/03/16 04:15:05;;;;;;;2.38;1.85;;;20.70;32.90;;;;;;5112670;28;20083;-82
2022/03/16 04:17:31;;;;;;;2.97;2.08;;;20.80;32.80;;;;;;5112942;28;20075;-82
2022/03/16 04:19:56;;;;;;;2.38;1.77;;;20.80;32.80;;;;;;5112814;28;20108;-82
2022/03/16 04:22:25;;;;;;;2.42;1.60;;;20.80;32.80;;;;;;5112837;28;20134;-82
2022/03/16 04:24:50;;;;;;;2.47;2.15;;;20.90;32.80;;;;;;5093781;28;20048;-82
2022/03/16 04:27:16;;;;;;;2.38;1.95;;;20.90;32.80;;;;;;5093141;28;20515;-82
2022/03/16 04:29:42;;;;;;;2.80;2.00;;;20.90;32.80;;;;;;5112725;28;20056;-82
2022/03/16 04:32:08;;;;;;;2.13;1.85;;;20.90;32.80;;;;;;5112873;28;20054;-82
2022/03/16 04:34:33;;;;;;;2.47;1.90;;;20.90;32.80;;;;;;5116410;28;20047;-82
2022/03/16 04:36:59;;;;;;;2.28;1.65;;;20.90;32.80;;;;;;5116483;28;20118;-82
2022/03/16 04:39:24;;;;;;;2.35;2.00;;;20.90;32.80;;;;;;5116174;28;20079;-82
2022/03/16 04:41:50;;;;;;;2.10;1.70;;;20.90;32.70;;;;;;5116617;28;20047;-82
2022/03/16 04:44:15;;;;;;;2.20;1.80;;;20.90;32.80;;;;;;5116414;28;20050;-79
2022/03/16 04:46:41;;;;;;;2.20;2.00;;;20.90;32.70;;;;;;5116228;28;20052;-79
2022/03/16 04:49:06;;;;;;;2.80;2.00;;;20.90;32.80;;;;;;5116204;28;20043;-79
2022/03/16 04:51:32;;;;;;;2.10;1.90;;;20.90;32.70;;;;;;5097862;28;20077;-82
2022/03/16 04:53:58;;;;;;;1.75;1.63;;;20.90;32.70;;;;;;5116112;28;20415;-82
2022/03/16 04:56:23;;;;;;;2.50;1.95;;;20.90;32.70;;;;;;5116072;28;20385;-82
2022/03/16 04:58:49;;;;;;;2.28;2.00;;;20.90;32.80;;;;;;5116421;28;20407;-82
2022/03/16 05:01:14;;;;;;;2.47;2.00;;;20.90;32.80;;;;;;5097697;28;20481;-82
2022/03/16 05:03:40;;;;;;;2.17;1.88;;;20.90;32.70;;;;;;5115985;28;20446;-82
2022/03/16 05:06:05;;;;;;;1.98;1.77;;;20.90;32.80;;;;;;5097663;28;20047;-82
2022/03/16 05:08:35;;;;;;;2.08;1.85;;;20.90;32.80;;;;;;5097889;28;20056;-82
2022/03/16 05:11:02;;;;;;;2.47;1.90;;;20.90;32.80;;;;;;5115961;28;20051;-82
2022/03/16 05:13:28;;;;;;;2.28;2.08;;;20.90;32.80;;;;;;5115809;28;20148;-81
2022/03/16 05:15:54;;;;;;;1.70;1.60;;;20.90;32.80;;;;;;5115872;28;20478;-82
2022/03/16 05:18:19;;;;;;;2.85;1.77;;;20.90;32.80;;;;;;5115976;28;20105;-82
2022/03/16 05:20:45;;;;;;;2.30;1.70;;;20.90;32.80;;;;;;5115852;28;20087;-81
2022/03/16 05:23:11;;;;;;;2.55;1.85;;;20.90;32.80;;;;;;5115745;28;20058;-82
2022/03/16 05:25:37;;;;;;;2.53;1.63;;;20.90;32.80;;;;;;5080487;28;20120;-82
2022/03/16 05:28:03;;;;;;;2.03;1.70;;;20.90;32.80;;;;;;5097071;28;20051;-79
2022/03/16 05:30:29;;;;;;;3.35;1.88;;;20.90;32.80;;;;;;5115524;28;20062;-79
2022/03/16 05:32:57;;;;;;;2.05;1.80;;;20.90;33.30;;;;;;5115604;28;20051;-79
2022/03/16 05:35:23;;;;;;;2.80;2.20;;;20.90;32.80;;;;;;5115910;28;20571;-79
2022/03/16 05:37:48;;;;;;;2.10;1.80;;;20.90;32.80;;;;;;5097407;28;20075;-79
2022/03/16 05:40:14;;;;;;;2.05;1.85;;;20.90;32.80;;;;;;5097421;28;20047;-80
2022/03/16 05:42:40;;;;;;;2.80;2.03;;;20.90;32.80;;;;;;5115455;28;20480;-79
2022/03/16 05:45:06;;;;;;;2.10;1.70;;;20.90;32.80;;;;;;5077806;28;20048;-79
2022/03/16 05:47:32;;;;;;;2.10;1.65;;;20.90;32.80;;;;;;5115199;28;20075;-79
2022/03/16 05:49:58;;;;;;;2.47;1.70;;;20.90;32.80;;;;;;5115235;28;20055;-79
2022/03/16 05:52:25;;;;;;;2.40;1.70;;;20.90;32.80;;;;;;5095262;28;20059;-79
2022/03/16 05:54:52;;;;;;;2.20;1.80;;;21.00;32.80;;;;;;5114938;28;20055;-79
2022/03/16 05:57:18;;;;;;;2.65;1.92;;;21.00;32.70;;;;;;5114874;28;20097;-79
2022/03/16 05:59:45;;;;;;;1.98;1.88;;;21.00;32.60;;;;;;5095446;28;20052;-79
2022/03/16 06:02:12;;;;;;;2.10;1.55;;;21.10;32.60;;;;;;5115080;28;20096;-80
2022/03/16 06:04:38;;;;;;;2.10;1.77;;;21.10;32.50;;;;;;5115315;28;20059;-79
2022/03/16 06:07:04;;;;;;;3.25;2.08;;;21.10;32.50;;;;;;5115040;28;20082;-79
2022/03/16 06:09:30;;;;;;;2.45;2.08;;;21.20;33.00;;;;;;5114849;28;20047;-79
2022/03/16 06:11:55;;;;;;;1.95;1.73;;;21.20;32.40;;;;;;5114974;28;20051;-79
2022/03/16 06:14:21;;;;;;;1.83;1.63;;;21.20;32.40;;;;;;5114967;28;20229;-79
2022/03/16 06:16:47;;;;;;;2.22;1.73;;;21.30;32.40;;;;;;5114800;28;20122;-79
2022/03/16 06:19:13;;;;;;;1.80;1.70;;;21.30;32.30;;;;;;5114972;28;20055;-80
2022/03/16 06:21:39;;;;;;;2.65;1.77;;;21.30;32.30;;;;;;5096455;28;20106;-80
2022/03/16 06:24:05;;;;;;;1.92;1.73;;;21.30;32.20;;;;;;5095200;28;20523;-79
2022/03/16 06:26:30;;;;;;;2.70;1.90;;;21.30;32.20;;;;;;5114701;28;20086;-80
2022/03/16 06:28:56;;;;;;;1.70;1.60;;;21.40;32.20;;;;;;5114952;28;20079;-79
2022/03/16 06:31:22;;;;;;;2.00;1.52;;;21.40;32.10;;;;;;5096271;28;20060;-79
2022/03/16 06:33:47;;;;;;;3.35;2.03;;;21.50;32.10;;;;;;5114937;28;20051;-79
2022/03/16 06:36:13;;;;;;;1.95;1.75;;;21.50;32.10;;;;;;5096383;28;20047;-79
2022/03/16 06:38:39;;;;;;;2.30;2.00;;;21.60;32.00;;;;;;5096083;28;20487;-79
2022/03/16 06:41:05;;;;;;;1.63;1.50;;;21.60;31.90;;;;;;5114464;28;20109;-79
2022/03/16 06:43:31;;;;;;;2.13;1.77;;;21.70;31.80;;;;;;5114476;28;20043;-79
2022/03/16 06:45:56;;;;;;;2.10;1.63;;;21.80;31.70;;;;;;5078818;28;20059;-79
2022/03/16 06:48:23;;;;;;;1.92;1.73;;;21.90;31.70;;;;;;5114308;28;20083;-79
2022/03/16 06:50:50;;;;;;;1.77;1.60;;;21.90;31.60;;;;;;5114325;28;20147;-79
2022/03/16 06:53:15;;;;;;;2.05;1.52;;;21.90;31.60;;;;;;5095949;28;20089;-79
2022/03/16 06:55:41;;;;;;;2.65;1.95;;;21.90;31.50;;;;;;5113245;28;20429;-79
2022/03/16 06:58:06;;;;;;;1.35;1.25;;;22.00;31.40;;;;;;5096299;28;20052;-79
2022/03/16 07:00:32;;;;;;;1.92;1.73;;;22.00;31.40;;;;;;5094279;28;20510;-79
2022/03/16 07:03:00;;;;;;;2.03;1.60;;;21.90;31.50;;;;;;5114462;28;20067;-80
2022/03/16 07:05:33;;;;;;;1.50;1.40;;;21.90;31.70;;;;;;5095858;28;20372;-80
2022/03/16 07:08:04;;;;;;;1.98;1.77;;;21.80;31.80;;;;;;5114149;28;20094;-79
2022/03/16 07:10:30;;;;;;;2.35;2.10;;;21.70;31.90;;;;;;5114006;28;20055;-79
2022/03/16 07:12:56;;;;;;;1.60;1.50;;;21.70;32.00;;;;;;5095684;28;20055;-82
2022/03/16 07:15:22;;;;;;;2.17;1.75;;;21.60;32.00;;;;;;5095715;28;20059;-82
2022/03/16 07:17:49;;;;;;;1.73;1.60;;;21.50;32.00;;;;;;5095494;28;20043;-82
2022/03/16 07:20:16;;;;;;;1.50;1.40;;;21.50;32.10;;;;;;5095656;28;20055;-81
2022/03/16 07:22:42;;;;;;;1.80;1.70;;;21.50;32.10;;;;;;5078580;28;20505;-81
2022/03/16 07:25:14;;;;;;;2.17;1.80;;;21.50;32.20;;;;;;5095420;28;20048;-81
2022/03/16 07:27:43;;;;;;;1.95;1.75;;;21.40;32.20;;;;;;5094037;28;20511;-82
2022/03/16 07:30:10;;;;;;;1.90;1.73;;;21.40;32.20;;;;;;5095635;28;20051;-81
2022/03/16 07:32:39;;;;;;;1.75;1.60;;;21.40;32.30;;;;;;5095274;28;20066;-81
2022/03/16 07:35:06;;;;;;;2.53;1.55;;;21.40;32.30;;;;;;5113531;28;20047;-81
2022/03/16 07:37:32;;;;;;;2.22;1.55;;;21.40;32.30;;;;;;5113176;28;20105;-81
2022/03/16 07:39:58;;;;;;;1.85;1.55;;;21.30;32.30;;;;;;5093939;28;20131;-82
2022/03/16 07:42:24;;;;;;;1.95;1.52;;;21.30;32.30;;;;;;5113412;28;20082;-81
2022/03/16 07:44:50;;;;;;;2.85;1.90;;;21.30;32.30;;;;;;5094291;28;20052;-81
2022/03/16 07:47:16;;;;;;;3.33;1.92;;;21.30;32.40;;;;;;5113192;28;20060;-81
2022/03/16 07:49:42;;;;;;;1.80;1.60;;;21.30;32.40;;;;;;5113494;28;20066;-81
2022/03/16 07:52:07;;;;;;;1.95;1.60;;;21.30;32.40;;;;;;5113433;28;20052;-81
2022/03/16 07:54:33;;;;;;;2.05;1.60;;;21.30;32.40;;;;;;5113296;28;20155;-81
2022/03/16 07:56:58;;;;;;;1.83;1.63;;;21.30;32.40;;;;;;5113143;28;20051;-81
2022/03/16 07:59:24;;;;;;;2.08;1.70;;;21.30;32.40;;;;;;5113618;28;20043;-81
2022/03/16 08:01:49;;;;;;;2.30;1.70;;;21.30;32.40;;;;;;5113273;28;20047;-81
2022/03/16 08:04:15;;;;;;;1.75;1.40;;;21.30;32.40;;;;;;5095021;28;20082;-81
2022/03/16 08:06:41;;;;;;;2.53;1.63;;;21.30;32.40;;;;;;5113325;28;20079;-81
2022/03/16 08:09:07;;;;;;;1.60;1.38;;;21.30;32.30;;;;;;5094841;28;20058;-81
2022/03/16 08:11:32;;;;;;;1.98;1.60;;;21.30;32.30;;;;;;5078320;28;20407;-81
2022/03/16 08:13:58;;;;;;;1.67;1.55;;;21.30;32.30;;;;;;5095153;28;20059;-81
2022/03/16 08:16:24;;;;;;;1.75;1.60;;;21.30;32.30;;;;;;5112829;28;20047;-81
2022/03/16 08:18:49;;;;;;;1.92;1.60;;;21.30;32.40;;;;;;5113405;28;20081;-81
2022/03/16 08:21:15;;;;;;;2.17;1.70;;;21.30;32.30;;;;;;5113153;28;20087;-81
2022/03/16 08:23:41;;;;;;;1.95;1.50;;;21.30;32.30;;;;;;5113199;28;20064;-81
2022/03/16 08:26:06;;;;;;;2.25;1.73;;;21.30;32.30;;;;;;5112910;28;20054;-81
2022/03/16 08:28:32;;;;;;;1.92;1.50;;;21.30;32.30;;;;;;5092915;28;20147;-81
2022/03/16 08:30:58;;;;;;;1.45;1.33;;;21.40;32.30;;;;;;5112872;28;20066;-81
2022/03/16 08:33:24;;;;;;;1.83;1.60;;;21.40;32.30;;;;;;5112993;28;20051;-81
2022/03/16 08:35:51;;;;;;;1.65;1.55;;;21.40;32.30;;;;;;5094538;28;20051;-81
2022/03/16 08:38:16;;;;;;;2.00;1.85;;;21.40;32.40;;;;;;5112779;28;20044;-81
2022/03/16 08:40:42;;;;;;;1.83;1.63;;;21.40;32.30;;;;;;5112530;28;20055;-81
2022/03/16 08:43:08;;;;;;;2.00;1.50;;;21.40;32.30;;;;;;5094530;28;20134;-81
2022/03/16 08:45:33;;;;;;;1.90;1.67;;;21.40;32.20;;;;;;5094375;28;20123;-81
2022/03/16 08:47:59;;;;;;;2.17;1.58;;;21.40;32.30;;;;;;5093759;28;20055;-81
2022/03/16 08:50:25;;;;;;;1.90;1.70;;;21.40;32.20;;;;;;5112464;28;20107;-81
2022/03/16 08:52:52;;;;;;;1.95;1.60;;;21.40;32.20;;;;;;5112543;28;20104;-81
2022/03/16 08:55:19;;;;;;;2.30;1.92;;;21.40;32.20;;;;;;5113008;28;20480;-82
2022/03/16 08:57:46;;;;;;;2.78;1.60;;;21.40;32.40;;;;;;5112510;28;20161;-82
2022/03/16 09:00:15;;;;;;;2.30;1.55;;;21.40;32.30;;;;;;5112409;28;20533;-82
2022/03/16 09:02:41;;;;;;;2.00;1.63;;;21.40;32.30;;;;;;5092960;28;20058;-82
2022/03/16 09:05:07;;;;;;;2.15;1.60;;;21.50;32.40;;;;;;5112349;28;20047;-82
2022/03/16 09:07:33;;;;;;;1.80;1.70;;;21.50;32.40;;;;;;5112160;28;20139;-82
2022/03/16 09:09:58;;;;;;;1.98;1.42;;;21.50;32.40;;;;;;5112413;28;20138;-81
2022/03/16 09:12:24;;;;;;;2.05;1.73;;;21.50;32.40;;;;;;5091870;28;20060;-83
2022/03/16 09:14:49;;;;;;;2.13;1.63;;;21.50;32.50;;;;;;5112422;28;20051;-83
2022/03/16 09:17:17;;;;;;;3.55;1.73;;;21.50;32.70;;;;;;5091990;28;20063;-82
2022/03/16 09:19:43;;;;;;;2.70;1.88;;;21.50;32.70;;;;;;5114612;28;20055;-82
2022/03/16 09:22:09;;;;;;;1.90;1.63;;;21.50;32.60;;;;;;5115642;28;20467;-83
2022/03/16 09:24:38;;;;;;;2.55;1.70;;;21.50;32.60;;;;;;5097754;28;20061;-83
2022/03/16 09:27:04;;;;;;;2.00;1.80;;;21.50;32.60;;;;;;5097713;28;20079;-82
2022/03/16 09:29:29;;;;;;;2.60;1.88;;;21.50;32.60;;;;;;5115521;28;20448;-83
2022/03/16 09:31:55;;;;;;;1.73;1.48;;;21.50;32.60;;;;;;5080328;28;20055;-82
2022/03/16 09:34:21;;;;;;;1.88;1.42;;;21.50;32.50;;;;;;5115412;28;20043;-83
2022/03/16 09:36:48;;;;;;;2.17;1.65;;;21.60;32.60;;;;;;5115532;28;20081;-82
2022/03/16 09:39:13;;;;;;;3.45;1.70;;;21.60;32.50;;;;;;5115331;28;20047;-82
2022/03/16 09:41:39;;;;;;;1.77;1.42;;;21.50;32.50;;;;;;5115338;28;20135;-83
2022/03/16 09:44:06;;;;;;;3.35;1.90;;;21.50;32.50;;;;;;5115413;28;20403;-83
2022/03/16 09:46:33;;;;;;;2.78;1.73;;;21.60;32.50;;;;;;5115223;28;20101;-82
2022/03/16 09:48:59;;;;;;;1.85;1.65;;;21.50;32.50;;;;;;5096659;28;20051;-82
2022/03/16 09:51:34;;;;;;;2.17;1.73;;;21.50;32.50;;;;;;5115140;28;20081;-83
2022/03/16 09:54:00;;;;;;;2.03;1.67;;;21.60;33.00;;;;;;5115252;28;20103;-83
2022/03/16 09:56:26;;;;;;;2.78;2.22;;;21.60;32.50;;;;;;5115192;28;20055;-83
2022/03/16 09:58:51;;;;;;;2.35;1.85;;;21.50;33.00;;;;;;5095223;28;20052;-82
2022/03/16 10:01:18;;;;;;;1.83;1.60;;;21.50;32.40;;;;;;5115068;28;20063;-82
2022/03/16 10:03:48;;;;;;;2.67;2.00;;;21.60;32.50;;;;;;5115181;28;20091;-82
2022/03/16 10:06:16;;;;;;;1.80;1.35;;;21.50;32.40;;;;;;5115071;28;20143;-82
2022/03/16 10:08:42;;;;;;;2.30;1.75;;;21.60;32.40;;;;;;5114769;28;20055;-83
2022/03/16 10:14:07;;;;;;;2.80;1.83;;;21.60;32.40;;;;;;5114845;28;20047;-83
2022/03/16 10:17:43;;;;;;;3.25;1.98;;;21.60;32.40;;;;;;5114768;28;20335;-82
2022/03/16 10:19:20;;;;;;;2.13;1.92;;;21.50;32.40;;;;;;5114465;28;20047;-82
2022/03/16 10:22:02;;;;;;;2.45;1.90;;;21.60;32.40;;;;;;5114903;28;20415;-83
2022/03/16 10:24:30;;;;;;;2.80;1.92;;;21.60;32.40;;;;;;5114771;28;20056;-83
2022/03/16 10:27:00;;;;;;;2.50;2.05;;;21.60;32.50;;;;;;5114689;28;20139;-82
2022/03/16 10:29:27;;;;;;;3.08;1.80;;;21.50;32.40;;;;;;5114522;28;20052;-82
2022/03/16 10:32:04;;;;;;;2.70;1.90;;;21.50;32.40;;;;;;5116538;28;20050;-83
2022/03/16 10:34:31;;;;;;;2.72;1.67;;;21.50;32.50;;;;;;5099759;28;20048;-84
2022/03/16 10:37:00;;;;;;;1.77;1.65;;;21.50;32.40;;;;;;5094161;28;20050;-83
2022/03/16 10:39:36;;;;;;;2.55;2.10;;;21.50;32.40;;;;;;5092511;28;20609;-82
2022/03/16 10:47:50;;;;;;;2.08;1.60;;;21.50;32.50;;;;;;5094068;28;20460;-82
2022/03/16 10:50:17;;;;;;;1.85;1.55;;;21.50;32.50;;;;;;5076237;28;20400;-82
2022/03/16 10:52:44;;;;;;;2.67;1.55;;;21.50;32.40;;;;;;5093937;28;20052;-83
2022/03/16 10:55:13;;;;;;;2.08;1.70;;;21.50;32.40;;;;;;5093776;28;20052;-82
2022/03/16 10:57:43;;;;;;;1.90;1.70;;;21.50;32.50;;;;;;5075412;28;20047;-82
2022/03/16 11:00:09;;;;;;;2.25;1.70;;;21.50;32.40;;;;;;5056980;28;20052;-82
2022/03/16 11:02:40;;;;;;;1.65;1.55;;;21.50;32.40;;;;;;5093375;28;20048;-82
2022/03/16 11:05:08;;;;;;;1.98;1.73;;;21.50;32.40;;;;;;5092922;28;20048;-82
2022/03/16 11:07:36;;;;;;;2.67;1.48;;;21.60;32.40;;;;;;5092140;28;20059;-82
2022/03/16 11:10:03;;;;;;;1.98;1.77;;;21.50;32.30;;;;;;5092364;28;20484;-83
2022/03/16 11:15:16;;;;;;;1.63;1.42;;;21.60;32.30;;;;;;5075588;28;20075;-82
2022/03/16 11:17:43;;;;;;;4.22;1.63;;;21.50;32.30;;;;;;5093293;28;20491;-82
2022/03/16 11:20:10;;;;;;;2.03;1.83;;;21.60;32.30;;;;;;5093537;28;20500;-82
2022/03/16 11:24:15;;;;;;;2.05;1.50;;;21.60;32.30;;;;;;5075244;28;20059;-82
2022/03/16 11:25:36;;;;;;;3.23;2.03;;;21.60;32.30;;;;;;5092866;28;20134;-81
2022/03/16 11:28:09;;;;;;;3.00;1.70;;;21.60;32.30;;;;;;5090728;28;20298;-82
2022/03/16 11:30:37;;;;;;;1.60;1.30;;;21.60;32.30;;;;;;5089051;28;20052;-82
2022/03/16 11:33:08;;;;;;;1.63;1.40;;;21.60;32.30;;;;;;5073944;28;20048;-81
2022/03/16 11:35:44;;;;;;;1.75;1.63;;;21.60;32.30;;;;;;5092549;28;20130;-82
2022/03/16 11:38:13;;;;;;;1.95;1.38;;;21.60;32.30;;;;;;5092633;28;20392;-83
2022/03/16 11:40:41;;;;;;;1.75;1.48;;;21.60;32.20;;;;;;5074736;28;20483;-83
2022/03/16 11:43:08;;;;;;;1.70;1.60;;;21.70;32.30;;;;;;5074332;28;20561;-83
2022/03/16 11:45:50;;;;;;;2.50;1.80;;;21.60;32.20;;;;;;5093272;28;20084;-83
2022/03/16 11:48:31;;;;;;;2.40;2.03;;;21.70;32.80;;;;;;5093030;28;20051;-82
2022/03/16 11:51:08;;;;;;;1.70;1.58;;;21.70;32.30;;;;;;5092878;28;20058;-82
2022/03/16 11:53:46;;;;;;;2.13;1.83;;;21.60;32.20;;;;;;5092924;28;20617;-82
2022/03/16 11:56:21;;;;;;;3.28;1.77;;;21.70;32.20;;;;;;5092828;28;20463;-83
2022/03/16 11:58:48;;;;;;;4.57;1.60;;;21.70;32.20;;;;;;5074291;28;20059;-83
2022/03/16 12:01:31;;;;;;;2.25;1.70;;;21.70;32.20;;;;;;5092766;28;20048;-82
2022/03/16 12:04:16;;;;;;;1.98;1.80;;;21.60;32.20;;;;;;5092738;28;20063;-82
2022/03/16 12:07:08;;;;;;;3.05;1.63;;;21.60;32.20;;;;;;5092713;28;20125;-82
2022/03/16 12:09:45;;;;;;;4.75;2.30;;;21.60;32.20;;;;;;5092636;28;20454;-82
2022/03/16 12:15:32;;;;;;;1.50;1.40;;;21.70;32.20;;;;;;5092567;28;20044;-82
2022/03/16 12:17:58;;;;;;;2.30;1.67;;;21.70;32.20;;;;;;5092109;28;20071;-82
2022/03/16 12:20:32;;;;;;;2.33;1.80;;;21.70;32.20;;;;;;5092823;28;20055;-82
2022/03/16 12:23:00;;;;;;;1.95;1.60;;;21.70;32.20;;;;;;5092496;28;20051;-82
2022/03/16 12:25:26;;;;;;;2.08;1.52;;;21.70;32.20;;;;;;5092211;28;20094;-82
2022/03/16 12:30:58;;;;;;;1.50;1.40;;;21.70;32.20;;;;;;5092459;28;20060;-82
2022/03/16 12:33:29;;;;;;;3.28;1.80;;;21.70;32.10;;;;;;5092249;28;20056;-82
2022/03/16 12:36:07;;;;;;;1.70;1.60;;;21.70;32.10;;;;;;5092114;28;20052;-82
2022/03/16 12:38:35;;;;;;;2.00;1.60;;;21.70;32.10;;;;;;5092186;28;20055;-82
2022/03/16 12:43:48;;;;;;;1.92;1.60;;;21.70;32.10;;;;;;5092220;28;20496;-82
2022/03/16 12:46:25;;;;;;;2.13;1.50;;;21.70;32.10;;;;;;5074018;28;20450;-82
2022/03/16 12:49:00;;;;;;;3.30;1.80;;;21.70;32.20;;;;;;5072628;28;20113;-82
2022/03/16 12:51:46;;;;;;;2.53;1.70;;;21.70;32.20;;;;;;5092228;28;20052;-82
2022/03/16 12:54:37;;;;;;;5.78;1.75;;;21.70;32.20;;;;;;5093471;28;20055;-82
2022/03/16 12:57:09;;;;;;;3.90;1.80;;;21.70;32.20;;;;;;5090919;28;20472;-82
2022/03/16 12:59:38;;;;;;;;;;;21.70;32.20;;;;;;5076672;28;20514;-82
2022/03/16 13:02:10;;;;;;;1.40;1.30;;;21.70;32.20;;;;;;5095404;28;19923;-82
2022/03/16 13:04:36;;;;;;;4.30;1.80;;;21.70;32.20;;;;;;5095189;28;20134;-82
2022/03/16 13:07:03;;;;;;;2.17;1.50;;;21.70;32.20;;;;;;5095271;28;20482;-82
2022/03/16 13:09:31;;;;;;;2.67;1.58;;;21.70;32.20;;;;;;5095293;28;20143;-82